sensor_id;sensor_type;location;lat;lon;timestamp;P1;durP1;ratioP1;P2;durP2;ratioP2
19167;SDS011;9716;53.114;18.040;2023-10-13T00:00:30;7.22;;;2.72;;
19167;SDS011;9716;53.114;18.040;2023-10-13T00:03:23;5.88;;;3.25;;
19167;SDS011;9716;53.114;18.040;2023-10-13T00:05:58;12.00;;;3.45;;
19167;SDS011;9716;53.114;18.040;2023-10-13T00:08:30;7.50;;;3.00;;
19167;SDS011;9716;53.114;18.040;2023-10-13T00:10:59;7.18;;;3.22;;
19167;SDS011;9716;53.114;18.040;2023-10-13T00:13:28;6.32;;;3.22;;
19167;SDS011;9716;53.114;18.040;2023-10-13T00:16:07;13.95;;;3.45;;
19167;SDS011;9716;53.114;18.040;2023-10-13T00:18:44;5.32;;;2.40;;
19167;SDS011;9716;53.114;18.040;2023-10-13T00:21:13;6.32;;;2.75;;
19167;SDS011;9716;53.114;18.040;2023-10-13T00:23:47;9.10;;;2.88;;
19167;SDS011;9716;53.114;18.040;2023-10-13T00:26:28;6.45;;;3.35;;
19167;SDS011;9716;53.114;18.040;2023-10-13T00:28:57;10.73;;;3.25;;
19167;SDS011;9716;53.114;18.040;2023-10-13T00:31:35;18.30;;;3.10;;
19167;SDS011;9716;53.114;18.040;2023-10-13T00:34:05;9.10;;;2.90;;
19167;SDS011;9716;53.114;18.040;2023-10-13T00:36:45;5.35;;;2.33;;
19167;SDS011;9716;53.114;18.040;2023-10-13T00:39:38;5.97;;;2.85;;
19167;SDS011;9716;53.114;18.040;2023-10-13T00:42:11;8.23;;;2.70;;
19167;SDS011;9716;53.114;18.040;2023-10-13T00:44:45;10.13;;;3.10;;
19167;SDS011;9716;53.114;18.040;2023-10-13T00:47:16;13.40;;;3.08;;
19167;SDS011;9716;53.114;18.040;2023-10-13T00:49:52;6.38;;;3.35;;
19167;SDS011;9716;53.114;18.040;2023-10-13T00:52:23;9.05;;;2.83;;
19167;SDS011;9716;53.114;18.040;2023-10-13T00:54:52;5.75;;;2.75;;
19167;SDS011;9716;53.114;18.040;2023-10-13T00:57:21;5.05;;;2.45;;
19167;SDS011;9716;53.114;18.040;2023-10-13T00:59:53;5.18;;;2.58;;
19167;SDS011;9716;53.114;18.040;2023-10-13T01:02:24;4.63;;;2.25;;
19167;SDS011;9716;53.114;18.040;2023-10-13T01:05:05;6.32;;;2.80;;
19167;SDS011;9716;53.114;18.040;2023-10-13T01:07:37;8.57;;;3.05;;
19167;SDS011;9716;53.114;18.040;2023-10-13T01:10:10;8.80;;;3.40;;
19167;SDS011;9716;53.114;18.040;2023-10-13T01:12:40;18.35;;;3.47;;
19167;SDS011;9716;53.114;18.040;2023-10-13T01:15:10;15.35;;;4.00;;
19167;SDS011;9716;53.114;18.040;2023-10-13T01:17:43;8.35;;;3.85;;
19167;SDS011;9716;53.114;18.040;2023-10-13T01:20:11;6.30;;;2.47;;
19167;SDS011;9716;53.114;18.040;2023-10-13T01:22:47;8.27;;;2.85;;
19167;SDS011;9716;53.114;18.040;2023-10-13T01:25:23;5.57;;;3.03;;
19167;SDS011;9716;53.114;18.040;2023-10-13T01:27:54;10.25;;;3.17;;
19167;SDS011;9716;53.114;18.040;2023-10-13T01:30:21;9.13;;;3.35;;
19167;SDS011;9716;53.114;18.040;2023-10-13T01:32:53;6.53;;;2.72;;
19167;SDS011;9716;53.114;18.040;2023-10-13T01:35:21;6.45;;;3.35;;
19167;SDS011;9716;53.114;18.040;2023-10-13T01:37:53;2.92;;;2.35;;
19167;SDS011;9716;53.114;18.040;2023-10-13T01:40:20;12.45;;;3.72;;
19167;SDS011;9716;53.114;18.040;2023-10-13T01:42:57;4.10;;;2.45;;
19167;SDS011;9716;53.114;18.040;2023-10-13T01:45:24;9.23;;;3.20;;
19167;SDS011;9716;53.114;18.040;2023-10-13T01:47:56;8.82;;;3.33;;
19167;SDS011;9716;53.114;18.040;2023-10-13T01:50:23;7.15;;;3.22;;
19167;SDS011;9716;53.114;18.040;2023-10-13T01:52:56;8.35;;;3.28;;
19167;SDS011;9716;53.114;18.040;2023-10-13T01:55:37;6.75;;;3.08;;
19167;SDS011;9716;53.114;18.040;2023-10-13T01:58:12;6.55;;;2.58;;
19167;SDS011;9716;53.114;18.040;2023-10-13T02:00:43;8.10;;;3.35;;
19167;SDS011;9716;53.114;18.040;2023-10-13T02:03:14;8.57;;;3.35;;
19167;SDS011;9716;53.114;18.040;2023-10-13T02:05:44;6.82;;;2.95;;
19167;SDS011;9716;53.114;18.040;2023-10-13T02:08:15;7.00;;;3.33;;
19167;SDS011;9716;53.114;18.040;2023-10-13T02:10:44;10.57;;;2.67;;
19167;SDS011;9716;53.114;18.040;2023-10-13T02:13:15;5.78;;;2.40;;
19167;SDS011;9716;53.114;18.040;2023-10-13T02:15:44;8.23;;;2.72;;
19167;SDS011;9716;53.114;18.040;2023-10-13T02:18:14;7.53;;;3.47;;
19167;SDS011;9716;53.114;18.040;2023-10-13T02:20:47;9.57;;;3.30;;
19167;SDS011;9716;53.114;18.040;2023-10-13T02:23:21;9.75;;;3.42;;
19167;SDS011;9716;53.114;18.040;2023-10-13T02:25:49;5.85;;;3.72;;
19167;SDS011;9716;53.114;18.040;2023-10-13T02:28:28;5.18;;;3.00;;
19167;SDS011;9716;53.114;18.040;2023-10-13T02:31:01;7.22;;;3.55;;
19167;SDS011;9716;53.114;18.040;2023-10-13T02:33:31;8.43;;;2.92;;
19167;SDS011;9716;53.114;18.040;2023-10-13T02:36:00;10.57;;;2.75;;
19167;SDS011;9716;53.114;18.040;2023-10-13T02:38:32;4.30;;;2.70;;
19167;SDS011;9716;53.114;18.040;2023-10-13T02:41:01;12.55;;;2.97;;
19167;SDS011;9716;53.114;18.040;2023-10-13T02:43:35;7.72;;;3.05;;
19167;SDS011;9716;53.114;18.040;2023-10-13T02:46:03;10.10;;;4.30;;
19167;SDS011;9716;53.114;18.040;2023-10-13T02:48:32;7.60;;;3.13;;
19167;SDS011;9716;53.114;18.040;2023-10-13T02:51:07;6.10;;;3.60;;
19167;SDS011;9716;53.114;18.040;2023-10-13T02:53:43;10.50;;;5.35;;
19167;SDS011;9716;53.114;18.040;2023-10-13T02:56:14;15.68;;;5.57;;
19167;SDS011;9716;53.114;18.040;2023-10-13T02:58:49;22.88;;;7.90;;
19167;SDS011;9716;53.114;18.040;2023-10-13T03:01:20;33.03;;;9.43;;
19167;SDS011;9716;53.114;18.040;2023-10-13T03:03:54;37.42;;;12.45;;
19167;SDS011;9716;53.114;18.040;2023-10-13T03:06:22;31.23;;;12.95;;
19167;SDS011;9716;53.114;18.040;2023-10-13T03:08:59;32.20;;;13.95;;
19167;SDS011;9716;53.114;18.040;2023-10-13T03:11:40;35.00;;;13.15;;
19167;SDS011;9716;53.114;18.040;2023-10-13T03:14:16;27.52;;;12.13;;
19167;SDS011;9716;53.114;18.040;2023-10-13T03:16:51;28.98;;;11.48;;
19167;SDS011;9716;53.114;18.040;2023-10-13T03:19:20;31.60;;;11.70;;
19167;SDS011;9716;53.114;18.040;2023-10-13T03:21:48;28.08;;;11.00;;
19167;SDS011;9716;53.114;18.040;2023-10-13T03:24:22;26.70;;;11.10;;
19167;SDS011;9716;53.114;18.040;2023-10-13T03:27:00;32.28;;;9.18;;
19167;SDS011;9716;53.114;18.040;2023-10-13T03:29:37;31.92;;;10.50;;
19167;SDS011;9716;53.114;18.040;2023-10-13T03:32:09;21.20;;;8.85;;
19167;SDS011;9716;53.114;18.040;2023-10-13T03:34:42;19.27;;;9.70;;
19167;SDS011;9716;53.114;18.040;2023-10-13T03:37:33;25.63;;;8.63;;
19167;SDS011;9716;53.114;18.040;2023-10-13T03:40:06;22.42;;;9.40;;
19167;SDS011;9716;53.114;18.040;2023-10-13T03:42:57;24.15;;;8.98;;
19167;SDS011;9716;53.114;18.040;2023-10-13T03:45:33;24.90;;;9.07;;
19167;SDS011;9716;53.114;18.040;2023-10-13T03:48:06;24.15;;;7.55;;
19167;SDS011;9716;53.114;18.040;2023-10-13T03:50:48;18.85;;;8.63;;
19167;SDS011;9716;53.114;18.040;2023-10-13T03:53:28;21.45;;;7.20;;
19167;SDS011;9716;53.114;18.040;2023-10-13T03:56:00;19.88;;;7.28;;
19167;SDS011;9716;53.114;18.040;2023-10-13T03:58:45;18.83;;;7.70;;
19167;SDS011;9716;53.114;18.040;2023-10-13T04:01:16;28.48;;;7.32;;
19167;SDS011;9716;53.114;18.040;2023-10-13T04:03:51;16.88;;;6.95;;
19167;SDS011;9716;53.114;18.040;2023-10-13T04:06:35;25.23;;;8.30;;
19167;SDS011;9716;53.114;18.040;2023-10-13T04:09:26;21.58;;;8.38;;
19167;SDS011;9716;53.114;18.040;2023-10-13T04:12:21;22.30;;;8.18;;
19167;SDS011;9716;53.114;18.040;2023-10-13T04:15:14;27.90;;;8.43;;
19167;SDS011;9716;53.114;18.040;2023-10-13T04:17:46;16.00;;;6.85;;
19167;SDS011;9716;53.114;18.040;2023-10-13T04:20:15;16.05;;;7.93;;
19167;SDS011;9716;53.114;18.040;2023-10-13T04:23:04;17.92;;;7.70;;
19167;SDS011;9716;53.114;18.040;2023-10-13T04:25:46;18.75;;;8.77;;
19167;SDS011;9716;53.114;18.040;2023-10-13T04:28:36;18.17;;;7.88;;
19167;SDS011;9716;53.114;18.040;2023-10-13T04:31:18;24.17;;;8.82;;
19167;SDS011;9716;53.114;18.040;2023-10-13T04:34:13;17.17;;;7.80;;
19167;SDS011;9716;53.114;18.040;2023-10-13T04:36:54;19.60;;;8.13;;
19167;SDS011;9716;53.114;18.040;2023-10-13T04:39:38;20.55;;;8.02;;
19167;SDS011;9716;53.114;18.040;2023-10-13T04:42:06;23.33;;;9.15;;
19167;SDS011;9716;53.114;18.040;2023-10-13T04:44:53;20.90;;;8.82;;
19167;SDS011;9716;53.114;18.040;2023-10-13T04:47:27;19.05;;;7.20;;
19167;SDS011;9716;53.114;18.040;2023-10-13T04:49:57;22.30;;;7.53;;
19167;SDS011;9716;53.114;18.040;2023-10-13T04:52:27;17.85;;;6.65;;
19167;SDS011;9716;53.114;18.040;2023-10-13T04:55:18;19.02;;;6.25;;
19167;SDS011;9716;53.114;18.040;2023-10-13T04:58:00;16.92;;;7.65;;
19167;SDS011;9716;53.114;18.040;2023-10-13T05:00:41;22.33;;;8.13;;
19167;SDS011;9716;53.114;18.040;2023-10-13T05:03:42;22.40;;;7.80;;
19167;SDS011;9716;53.114;18.040;2023-10-13T05:06:50;15.90;;;6.55;;
19167;SDS011;9716;53.114;18.040;2023-10-13T05:09:36;23.58;;;7.88;;
19167;SDS011;9716;53.114;18.040;2023-10-13T05:12:22;19.55;;;7.55;;
19167;SDS011;9716;53.114;18.040;2023-10-13T05:15:08;18.50;;;7.13;;
19167;SDS011;9716;53.114;18.040;2023-10-13T05:17:54;22.70;;;7.35;;
19167;SDS011;9716;53.114;18.040;2023-10-13T05:20:40;21.73;;;7.07;;
19167;SDS011;9716;53.114;18.040;2023-10-13T05:23:28;14.57;;;6.25;;
19167;SDS011;9716;53.114;18.040;2023-10-13T05:26:14;17.55;;;7.53;;
19167;SDS011;9716;53.114;18.040;2023-10-13T05:29:00;13.40;;;6.63;;
19167;SDS011;9716;53.114;18.040;2023-10-13T05:31:55;13.95;;;6.90;;
19167;SDS011;9716;53.114;18.040;2023-10-13T05:34:41;15.50;;;7.05;;
19167;SDS011;9716;53.114;18.040;2023-10-13T05:37:27;16.33;;;7.45;;
19167;SDS011;9716;53.114;18.040;2023-10-13T05:40:14;14.93;;;6.95;;
19167;SDS011;9716;53.114;18.040;2023-10-13T05:43:00;27.13;;;7.40;;
19167;SDS011;9716;53.114;18.040;2023-10-13T05:45:47;14.07;;;6.55;;
19167;SDS011;9716;53.114;18.040;2023-10-13T05:48:44;20.80;;;7.05;;
19167;SDS011;9716;53.114;18.040;2023-10-13T05:51:49;20.40;;;7.03;;
19167;SDS011;9716;53.114;18.040;2023-10-13T05:54:35;18.52;;;7.50;;
19167;SDS011;9716;53.114;18.040;2023-10-13T05:57:21;19.02;;;7.30;;
19167;SDS011;9716;53.114;18.040;2023-10-13T06:00:07;18.83;;;7.15;;
19167;SDS011;9716;53.114;18.040;2023-10-13T06:02:54;27.92;;;7.82;;
19167;SDS011;9716;53.114;18.040;2023-10-13T06:05:40;21.70;;;7.97;;
19167;SDS011;9716;53.114;18.040;2023-10-13T06:08:27;18.20;;;6.32;;
19167;SDS011;9716;53.114;18.040;2023-10-13T06:11:13;21.00;;;6.60;;
19167;SDS011;9716;53.114;18.040;2023-10-13T06:13:59;16.27;;;6.93;;
19167;SDS011;9716;53.114;18.040;2023-10-13T06:16:45;13.57;;;6.00;;
19167;SDS011;9716;53.114;18.040;2023-10-13T06:19:31;16.15;;;6.97;;
19167;SDS011;9716;53.114;18.040;2023-10-13T06:22:17;21.58;;;5.95;;
19167;SDS011;9716;53.114;18.040;2023-10-13T06:25:04;23.23;;;7.40;;
19167;SDS011;9716;53.114;18.040;2023-10-13T06:27:51;14.35;;;6.20;;
19167;SDS011;9716;53.114;18.040;2023-10-13T06:30:37;22.10;;;7.72;;
19167;SDS011;9716;53.114;18.040;2023-10-13T06:33:05;22.30;;;6.47;;
19167;SDS011;9716;53.114;18.040;2023-10-13T06:35:34;14.35;;;6.53;;
19167;SDS011;9716;53.114;18.040;2023-10-13T06:38:05;19.00;;;6.80;;
19167;SDS011;9716;53.114;18.040;2023-10-13T06:40:48;14.57;;;6.55;;
19167;SDS011;9716;53.114;18.040;2023-10-13T06:43:19;18.25;;;6.43;;
19167;SDS011;9716;53.114;18.040;2023-10-13T06:45:53;29.70;;;7.25;;
19167;SDS011;9716;53.114;18.040;2023-10-13T06:48:27;21.02;;;6.93;;
19167;SDS011;9716;53.114;18.040;2023-10-13T06:51:00;20.35;;;6.13;;
19167;SDS011;9716;53.114;18.040;2023-10-13T06:53:41;17.80;;;5.15;;
19167;SDS011;9716;53.114;18.040;2023-10-13T06:56:16;12.90;;;5.07;;
19167;SDS011;9716;53.114;18.040;2023-10-13T06:58:54;12.85;;;5.82;;
19167;SDS011;9716;53.114;18.040;2023-10-13T07:01:26;12.95;;;5.88;;
19167;SDS011;9716;53.114;18.040;2023-10-13T07:03:55;11.73;;;6.13;;
19167;SDS011;9716;53.114;18.040;2023-10-13T07:06:28;23.73;;;7.10;;
19167;SDS011;9716;53.114;18.040;2023-10-13T07:08:58;14.35;;;5.85;;
19167;SDS011;9716;53.114;18.040;2023-10-13T07:11:33;14.98;;;6.43;;
19167;SDS011;9716;53.114;18.040;2023-10-13T07:14:01;19.38;;;6.47;;
19167;SDS011;9716;53.114;18.040;2023-10-13T07:19:26;14.52;;;7.22;;
19167;SDS011;9716;53.114;18.040;2023-10-13T07:21:58;17.55;;;7.50;;
19167;SDS011;9716;53.114;18.040;2023-10-13T07:24:46;16.63;;;7.90;;
19167;SDS011;9716;53.114;18.040;2023-10-13T07:27:17;20.08;;;7.30;;
19167;SDS011;9716;53.114;18.040;2023-10-13T07:29:51;14.85;;;7.47;;
19167;SDS011;9716;53.114;18.040;2023-10-13T07:32:32;16.35;;;7.32;;
19167;SDS011;9716;53.114;18.040;2023-10-13T07:35:01;17.50;;;7.72;;
19167;SDS011;9716;53.114;18.040;2023-10-13T07:37:34;17.02;;;7.88;;
19167;SDS011;9716;53.114;18.040;2023-10-13T07:40:03;18.48;;;7.55;;
19167;SDS011;9716;53.114;18.040;2023-10-13T07:42:49;19.27;;;7.47;;
19167;SDS011;9716;53.114;18.040;2023-10-13T07:45:18;17.55;;;7.38;;
19167;SDS011;9716;53.114;18.040;2023-10-13T07:47:52;28.30;;;6.95;;
19167;SDS011;9716;53.114;18.040;2023-10-13T07:50:20;13.52;;;6.88;;
19167;SDS011;9716;53.114;18.040;2023-10-13T07:52:52;19.38;;;7.28;;
19167;SDS011;9716;53.114;18.040;2023-10-13T07:55:32;20.40;;;7.35;;
19167;SDS011;9716;53.114;18.040;2023-10-13T07:58:03;14.40;;;6.70;;
19167;SDS011;9716;53.114;18.040;2023-10-13T08:00:34;14.80;;;6.95;;
19167;SDS011;9716;53.114;18.040;2023-10-13T08:03:14;11.20;;;6.93;;
19167;SDS011;9716;53.114;18.040;2023-10-13T08:06:02;16.27;;;6.93;;
19167;SDS011;9716;53.114;18.040;2023-10-13T08:08:47;13.43;;;7.97;;
19167;SDS011;9716;53.114;18.040;2023-10-13T08:11:21;17.92;;;7.60;;
19167;SDS011;9716;53.114;18.040;2023-10-13T08:14:00;14.63;;;6.97;;
19167;SDS011;9716;53.114;18.040;2023-10-13T08:16:52;13.77;;;7.15;;
19167;SDS011;9716;53.114;18.040;2023-10-13T08:19:21;17.70;;;7.63;;
19167;SDS011;9716;53.114;18.040;2023-10-13T08:21:55;18.40;;;7.20;;
19167;SDS011;9716;53.114;18.040;2023-10-13T08:24:41;20.83;;;7.50;;
19167;SDS011;9716;53.114;18.040;2023-10-13T08:27:23;16.13;;;7.57;;
19167;SDS011;9716;53.114;18.040;2023-10-13T08:30:04;17.70;;;6.88;;
19167;SDS011;9716;53.114;18.040;2023-10-13T08:32:53;19.65;;;5.75;;
19167;SDS011;9716;53.114;18.040;2023-10-13T08:35:23;10.13;;;5.95;;
19167;SDS011;9716;53.114;18.040;2023-10-13T08:38:05;9.57;;;6.07;;
19167;SDS011;9716;53.114;18.040;2023-10-13T08:40:57;15.50;;;6.18;;
19167;SDS011;9716;53.114;18.040;2023-10-13T08:43:44;9.38;;;4.70;;
19167;SDS011;9716;53.114;18.040;2023-10-13T08:46:19;10.88;;;4.63;;
19167;SDS011;9716;53.114;18.040;2023-10-13T08:49:05;20.20;;;5.43;;
19167;SDS011;9716;53.114;18.040;2023-10-13T08:51:40;10.10;;;5.10;;
19167;SDS011;9716;53.114;18.040;2023-10-13T08:54:16;11.60;;;4.50;;
19167;SDS011;9716;53.114;18.040;2023-10-13T08:57:01;14.55;;;5.13;;
19167;SDS011;9716;53.114;18.040;2023-10-13T09:00:00;15.32;;;5.22;;
19167;SDS011;9716;53.114;18.040;2023-10-13T09:02:48;9.85;;;4.18;;
19167;SDS011;9716;53.114;18.040;2023-10-13T09:05:55;10.50;;;4.13;;
19167;SDS011;9716;53.114;18.040;2023-10-13T09:08:33;9.00;;;4.47;;
19167;SDS011;9716;53.114;18.040;2023-10-13T09:11:12;7.32;;;4.13;;
19167;SDS011;9716;53.114;18.040;2023-10-13T09:13:40;9.82;;;3.75;;
19167;SDS011;9716;53.114;18.040;2023-10-13T09:16:12;9.40;;;4.57;;
19167;SDS011;9716;53.114;18.040;2023-10-13T09:18:50;9.52;;;4.35;;
19167;SDS011;9716;53.114;18.040;2023-10-13T09:21:19;12.40;;;4.85;;
19167;SDS011;9716;53.114;18.040;2023-10-13T09:24:11;11.65;;;5.03;;
19167;SDS011;9716;53.114;18.040;2023-10-13T09:26:54;9.32;;;4.55;;
19167;SDS011;9716;53.114;18.040;2023-10-13T09:29:24;13.43;;;5.05;;
19167;SDS011;9716;53.114;18.040;2023-10-13T09:31:59;17.20;;;5.15;;
19167;SDS011;9716;53.114;18.040;2023-10-13T09:34:32;8.63;;;4.45;;
19167;SDS011;9716;53.114;18.040;2023-10-13T09:37:07;10.85;;;5.13;;
19167;SDS011;9716;53.114;18.040;2023-10-13T09:39:40;9.75;;;4.57;;
19167;SDS011;9716;53.114;18.040;2023-10-13T09:42:12;14.40;;;4.15;;
19167;SDS011;9716;53.114;18.040;2023-10-13T09:44:44;21.13;;;6.50;;
19167;SDS011;9716;53.114;18.040;2023-10-13T09:47:23;22.65;;;5.70;;
19167;SDS011;9716;53.114;18.040;2023-10-13T09:50:07;16.02;;;5.63;;
19167;SDS011;9716;53.114;18.040;2023-10-13T09:52:51;11.60;;;5.22;;
19167;SDS011;9716;53.114;18.040;2023-10-13T09:55:21;15.95;;;5.50;;
19167;SDS011;9716;53.114;18.040;2023-10-13T09:57:58;14.73;;;5.38;;
19167;SDS011;9716;53.114;18.040;2023-10-13T10:00:39;11.38;;;5.00;;
19167;SDS011;9716;53.114;18.040;2023-10-13T10:03:16;14.65;;;5.57;;
19167;SDS011;9716;53.114;18.040;2023-10-13T10:06:03;18.15;;;6.40;;
19167;SDS011;9716;53.114;18.040;2023-10-13T10:08:33;15.05;;;5.50;;
19167;SDS011;9716;53.114;18.040;2023-10-13T10:14:14;18.00;;;5.38;;
19167;SDS011;9716;53.114;18.040;2023-10-13T10:16:51;13.85;;;5.32;;
19167;SDS011;9716;53.114;18.040;2023-10-13T10:19:45;9.85;;;5.78;;
19167;SDS011;9716;53.114;18.040;2023-10-13T10:22:24;14.82;;;5.30;;
19167;SDS011;9716;53.114;18.040;2023-10-13T10:24:58;15.57;;;5.63;;
19167;SDS011;9716;53.114;18.040;2023-10-13T10:27:27;12.00;;;5.40;;
19167;SDS011;9716;53.114;18.040;2023-10-13T10:29:57;15.43;;;5.90;;
19167;SDS011;9716;53.114;18.040;2023-10-13T10:32:32;14.40;;;5.60;;
19167;SDS011;9716;53.114;18.040;2023-10-13T10:35:08;9.70;;;5.50;;
19167;SDS011;9716;53.114;18.040;2023-10-13T10:37:48;13.30;;;5.75;;
19167;SDS011;9716;53.114;18.040;2023-10-13T10:40:17;13.88;;;5.43;;
19167;SDS011;9716;53.114;18.040;2023-10-13T10:43:09;11.02;;;5.22;;
19167;SDS011;9716;53.114;18.040;2023-10-13T10:45:59;14.45;;;5.10;;
19167;SDS011;9716;53.114;18.040;2023-10-13T10:48:28;22.98;;;6.00;;
19167;SDS011;9716;53.114;18.040;2023-10-13T10:51:05;11.07;;;5.88;;
19167;SDS011;9716;53.114;18.040;2023-10-13T10:53:42;12.07;;;4.90;;
19167;SDS011;9716;53.114;18.040;2023-10-13T10:56:12;14.88;;;5.40;;
19167;SDS011;9716;53.114;18.040;2023-10-13T10:59:04;15.60;;;5.20;;
19167;SDS011;9716;53.114;18.040;2023-10-13T11:01:42;11.55;;;4.55;;
19167;SDS011;9716;53.114;18.040;2023-10-13T11:04:14;14.98;;;4.75;;
19167;SDS011;9716;53.114;18.040;2023-10-13T11:06:47;10.10;;;4.97;;
19167;SDS011;9716;53.114;18.040;2023-10-13T11:09:24;17.65;;;5.40;;
19167;SDS011;9716;53.114;18.040;2023-10-13T11:12:10;6.88;;;3.97;;
19167;SDS011;9716;53.114;18.040;2023-10-13T11:14:43;17.08;;;5.20;;
19167;SDS011;9716;53.114;18.040;2023-10-13T11:17:21;15.65;;;5.57;;
19167;SDS011;9716;53.114;18.040;2023-10-13T11:19:53;8.48;;;3.63;;
19167;SDS011;9716;53.114;18.040;2023-10-13T11:22:23;11.40;;;4.35;;
19167;SDS011;9716;53.114;18.040;2023-10-13T11:25:01;12.90;;;4.40;;
19167;SDS011;9716;53.114;18.040;2023-10-13T11:27:38;7.90;;;4.47;;
19167;SDS011;9716;53.114;18.040;2023-10-13T11:30:23;16.98;;;6.07;;
19167;SDS011;9716;53.114;18.040;2023-10-13T11:32:57;12.82;;;5.63;;
19167;SDS011;9716;53.114;18.040;2023-10-13T11:35:33;7.65;;;4.28;;
19167;SDS011;9716;53.114;18.040;2023-10-13T11:38:21;11.55;;;4.93;;
19167;SDS011;9716;53.114;18.040;2023-10-13T11:40:55;22.08;;;4.78;;
19167;SDS011;9716;53.114;18.040;2023-10-13T11:43:42;16.85;;;4.55;;
19167;SDS011;9716;53.114;18.040;2023-10-13T11:46:33;20.08;;;4.65;;
19167;SDS011;9716;53.114;18.040;2023-10-13T11:49:19;9.20;;;4.07;;
19167;SDS011;9716;53.114;18.040;2023-10-13T11:51:59;9.00;;;4.93;;
19167;SDS011;9716;53.114;18.040;2023-10-13T11:54:44;8.05;;;4.07;;
19167;SDS011;9716;53.114;18.040;2023-10-13T11:57:15;10.05;;;4.85;;
19167;SDS011;9716;53.114;18.040;2023-10-13T11:59:48;11.00;;;4.35;;
19167;SDS011;9716;53.114;18.040;2023-10-13T12:02:43;5.88;;;3.55;;
19167;SDS011;9716;53.114;18.040;2023-10-13T12:05:31;8.45;;;4.57;;
19167;SDS011;9716;53.114;18.040;2023-10-13T12:08:16;14.15;;;4.70;;
19167;SDS011;9716;53.114;18.040;2023-10-13T12:11:00;9.68;;;4.35;;
19167;SDS011;9716;53.114;18.040;2023-10-13T12:13:49;12.98;;;4.03;;
19167;SDS011;9716;53.114;18.040;2023-10-13T12:16:18;8.50;;;4.30;;
19167;SDS011;9716;53.114;18.040;2023-10-13T12:18:47;11.95;;;4.20;;
19167;SDS011;9716;53.114;18.040;2023-10-13T12:21:20;9.77;;;4.20;;
19167;SDS011;9716;53.114;18.040;2023-10-13T12:23:48;11.10;;;5.05;;
19167;SDS011;9716;53.114;18.040;2023-10-13T12:26:17;9.85;;;3.90;;
19167;SDS011;9716;53.114;18.040;2023-10-13T12:28:46;10.25;;;4.60;;
19167;SDS011;9716;53.114;18.040;2023-10-13T12:31:20;9.73;;;3.97;;
19167;SDS011;9716;53.114;18.040;2023-10-13T12:33:54;10.43;;;4.60;;
19167;SDS011;9716;53.114;18.040;2023-10-13T12:36:24;10.52;;;4.40;;
19167;SDS011;9716;53.114;18.040;2023-10-13T12:39:07;7.53;;;4.22;;
19167;SDS011;9716;53.114;18.040;2023-10-13T12:41:53;6.55;;;3.90;;
19167;SDS011;9716;53.114;18.040;2023-10-13T12:44:39;13.85;;;4.32;;
19167;SDS011;9716;53.114;18.040;2023-10-13T12:47:26;10.00;;;4.38;;
19167;SDS011;9716;53.114;18.040;2023-10-13T12:50:12;5.82;;;3.53;;
19167;SDS011;9716;53.114;18.040;2023-10-13T12:52:53;11.90;;;4.03;;
19167;SDS011;9716;53.114;18.040;2023-10-13T12:55:21;8.50;;;4.18;;
19167;SDS011;9716;53.114;18.040;2023-10-13T12:57:52;10.18;;;4.07;;
19167;SDS011;9716;53.114;18.040;2023-10-13T13:00:20;9.48;;;5.50;;
19167;SDS011;9716;53.114;18.040;2023-10-13T13:02:54;9.20;;;4.20;;
19167;SDS011;9716;53.114;18.040;2023-10-13T13:05:23;10.07;;;4.97;;
19167;SDS011;9716;53.114;18.040;2023-10-13T13:07:56;7.93;;;3.92;;
19167;SDS011;9716;53.114;18.040;2023-10-13T13:10:25;17.35;;;4.95;;
19167;SDS011;9716;53.114;18.040;2023-10-13T13:13:03;10.63;;;5.20;;
19167;SDS011;9716;53.114;18.040;2023-10-13T13:15:32;7.80;;;4.07;;
19167;SDS011;9716;53.114;18.040;2023-10-13T13:18:02;9.57;;;4.85;;
19167;SDS011;9716;53.114;18.040;2023-10-13T13:20:38;7.53;;;4.85;;
19167;SDS011;9716;53.114;18.040;2023-10-13T13:23:11;9.63;;;4.65;;
19167;SDS011;9716;53.114;18.040;2023-10-13T13:25:44;16.13;;;5.07;;
19167;SDS011;9716;53.114;18.040;2023-10-13T13:28:14;8.05;;;4.30;;
19167;SDS011;9716;53.114;18.040;2023-10-13T13:30:42;9.23;;;4.47;;
19167;SDS011;9716;53.114;18.040;2023-10-13T13:33:14;13.30;;;6.60;;
19167;SDS011;9716;53.114;18.040;2023-10-13T13:35:43;13.20;;;6.82;;
19167;SDS011;9716;53.114;18.040;2023-10-13T13:38:16;11.27;;;5.63;;
19167;SDS011;9716;53.114;18.040;2023-10-13T13:40:49;18.20;;;6.10;;
19167;SDS011;9716;53.114;18.040;2023-10-13T13:43:21;11.38;;;5.53;;
19167;SDS011;9716;53.114;18.040;2023-10-13T13:46:05;13.02;;;5.95;;
19167;SDS011;9716;53.114;18.040;2023-10-13T13:48:39;9.25;;;5.13;;
19167;SDS011;9716;53.114;18.040;2023-10-13T13:51:08;14.15;;;4.72;;
19167;SDS011;9716;53.114;18.040;2023-10-13T13:53:42;9.77;;;4.72;;
19167;SDS011;9716;53.114;18.040;2023-10-13T13:56:14;7.03;;;4.45;;
19167;SDS011;9716;53.114;18.040;2023-10-13T13:58:45;8.50;;;4.50;;
19167;SDS011;9716;53.114;18.040;2023-10-13T14:01:15;6.18;;;3.53;;
19167;SDS011;9716;53.114;18.040;2023-10-13T14:03:47;9.65;;;3.38;;
19167;SDS011;9716;53.114;18.040;2023-10-13T14:06:20;6.45;;;3.55;;
19167;SDS011;9716;53.114;18.040;2023-10-13T14:08:52;5.75;;;3.35;;
19167;SDS011;9716;53.114;18.040;2023-10-13T14:11:23;9.75;;;3.60;;
19167;SDS011;9716;53.114;18.040;2023-10-13T14:14:11;4.95;;;3.25;;
19167;SDS011;9716;53.114;18.040;2023-10-13T14:16:55;5.07;;;3.30;;
19167;SDS011;9716;53.114;18.040;2023-10-13T14:19:32;8.95;;;3.30;;
19167;SDS011;9716;53.114;18.040;2023-10-13T14:22:07;4.75;;;2.85;;
19167;SDS011;9716;53.114;18.040;2023-10-13T14:24:40;3.90;;;2.63;;
19167;SDS011;9716;53.114;18.040;2023-10-13T14:27:18;12.63;;;3.53;;
19167;SDS011;9716;53.114;18.040;2023-10-13T14:29:50;6.60;;;3.17;;
19167;SDS011;9716;53.114;18.040;2023-10-13T14:32:20;8.38;;;3.35;;
19167;SDS011;9716;53.114;18.040;2023-10-13T14:34:53;6.88;;;3.40;;
19167;SDS011;9716;53.114;18.040;2023-10-13T14:37:23;4.10;;;2.97;;
19167;SDS011;9716;53.114;18.040;2023-10-13T14:39:57;5.97;;;3.45;;
19167;SDS011;9716;53.114;18.040;2023-10-13T14:42:27;5.55;;;3.53;;
19167;SDS011;9716;53.114;18.040;2023-10-13T14:45:02;7.95;;;3.20;;
19167;SDS011;9716;53.114;18.040;2023-10-13T14:47:39;5.57;;;3.22;;
19167;SDS011;9716;53.114;18.040;2023-10-13T14:50:10;7.07;;;2.95;;
19167;SDS011;9716;53.114;18.040;2023-10-13T14:52:46;4.07;;;2.63;;
19167;SDS011;9716;53.114;18.040;2023-10-13T14:55:16;6.85;;;3.05;;
19167;SDS011;9716;53.114;18.040;2023-10-13T14:57:48;6.32;;;2.97;;
19167;SDS011;9716;53.114;18.040;2023-10-13T15:00:18;7.25;;;2.70;;
19167;SDS011;9716;53.114;18.040;2023-10-13T15:02:52;5.05;;;3.05;;
19167;SDS011;9716;53.114;18.040;2023-10-13T15:05:23;6.10;;;3.20;;
19167;SDS011;9716;53.114;18.040;2023-10-13T15:07:52;8.73;;;3.85;;
19167;SDS011;9716;53.114;18.040;2023-10-13T15:10:21;9.48;;;4.35;;
19167;SDS011;9716;53.114;18.040;2023-10-13T15:12:51;7.22;;;4.00;;
19167;SDS011;9716;53.114;18.040;2023-10-13T15:15:19;10.18;;;4.90;;
19167;SDS011;9716;53.114;18.040;2023-10-13T15:17:48;7.82;;;5.00;;
19167;SDS011;9716;53.114;18.040;2023-10-13T15:20:17;7.97;;;4.53;;
19167;SDS011;9716;53.114;18.040;2023-10-13T15:22:47;9.13;;;4.85;;
19167;SDS011;9716;53.114;18.040;2023-10-13T15:25:16;9.02;;;5.18;;
19167;SDS011;9716;53.114;18.040;2023-10-13T15:27:48;11.30;;;6.20;;
19167;SDS011;9716;53.114;18.040;2023-10-13T15:30:22;11.52;;;4.50;;
19167;SDS011;9716;53.114;18.040;2023-10-13T15:32:53;14.40;;;4.75;;
19167;SDS011;9716;53.114;18.040;2023-10-13T15:35:24;7.22;;;4.15;;
19167;SDS011;9716;53.114;18.040;2023-10-13T15:37:56;18.33;;;5.00;;
19167;SDS011;9716;53.114;18.040;2023-10-13T15:40:25;7.95;;;4.00;;